Flight EZE1564

  • Submitted By: Dave Hardy
  • Departure Airport: Manchester (EGCC)
  • Arrival Airport: Farnborough (EGLF)
  • Aircraft: SB20 (G-CDEA)
  • Flight Time: 00.52
  • Date Submitted: 04/07/2009
  • Status: Accepted
Flight Details
Gross Revenue:
(36 load / £ 0.00 per unit
£ 0.00
Fuel Cost:
(878703000 fuel used @ 0 / unit)
£ 0.00

Flight Details

  • VATAWARE Link: -

Additional Log Information:

View Log

[2009/04/07 15:00:00]
Flight IATA:EZE1564
Pilot Number:EZE0001
Company ICAO:EZE
Aircraft Type:SB20
Aircraft Registration:SB20
Departing Airport: EGCC
Destination Airport: EGLF
Online: VATSIM
Route:HON N615 WOD
Flight Level:FL190
15:00 Zero fuel Weight: 50058 Lbs, Fuel Weight: 00 Lbs
15:00 VATSIM:EGCC 040520Z 18008KT 1900 -RA FEW005 SCT030 BKN040 08/07 Q1012
15:00 VATSIM:EGLF 031950Z 19004KT 160V220 2500 HZ NSC 08/06 Q1016
15:01 Slew ON
15:02 Slew OFF
15:03 Slew ON
15:05 Slew OFF
15:25 Parking Brakes off
15:25 Com1 Freq=118.62
15:38 VR= 168 Knots
15:38 V2= 171 Knots
15:38 Take-off
15:38 Take off Weight: 45625 Lbs
15:38 Wind: 186 @ 012 Knots Heading: 228
15:38 POS N53 20 33 W002 17 18
15:38 N11 130 N12 130
15:38 Gear Up: 183 Knots
15:38 Flaps: at 183 Knots
15:39 Com1 Freq=118.77
15:42 Com1 Freq=121.77
15:42 Com1 Freq=122.77
15:42 Com1 Freq=122.85
15:42 Com1 Freq=122.77
15:42 Com1 Freq=122.80
15:47 TOC
15:47 Fuel Weight: 5149 Lb
15:47 Flaps:Up at 231 Knots
15:53 Wind:259@032 Knots Heading: 158 Ground Speed: 365 Knots Altitude 18750 ft
15:56 TOD
15:56 Fuel Weight: 4748 Lb
15:58 Com1 Freq=123.80
15:58 Com1 Freq=124.80
15:58 Com1 Freq=125.80
15:58 Com1 Freq=126.80
15:58 Com1 Freq=127.80
15:58 Com1 Freq=127.87
15:58 Com1 Freq=127.92
15:58 Com1 Freq=127.95
16:01 Flaps: at 293 Knots
16:04 Flaps:Up at 195 Knots
16:08 Wind:209@018 Knots Heading: 163 Ground Speed: 264 Knots Altitude 2191 ft
16:08 Flaps: at 267 Knots
16:12 Gear Down: 213 Knots
16:12 Flaps: at 213 Knots
16:14 Flaps: at 177 Knots
16:15 TouchDown:Rate -116 ft/min Speed: 135 Knots
16:15 Flaps: at 58 Knots
16:15 Flaps:Up at 57 Knots
16:15 VATSIM:EGLF 031950Z 19004KT 160V220 2500 HZ NSC 08/06 Q1016
16:15 Land
16:15 Wind:215@009 Knots
16:15 Heading: 241
16:15 Flight Duration: 00:37
16:15 Landing Weight: 43866 Lbs
16:15 POS N51 16 24 W000 47 01
16:17 Parking brakes on
16:17 Block to Block Duration: 00:52
16:17 Final Fuel: 4043 Lbls
16:17 Spent Fuel: 878703315 Lbls
16:17 Flight Length: 168 NM
16:17 TOD Land Length: 78 NM

Route Map